sensor_id;sensor_type;location;lat;lon;timestamp;temperature;humidity
10419;DHT22;5256;48.728;9.140;2023-04-04T00:01:37;-0.50;99.90
10419;DHT22;5256;48.728;9.140;2023-04-04T00:04:03;-0.60;99.90
10419;DHT22;5256;48.728;9.140;2023-04-04T00:06:29;-0.60;99.90
10419;DHT22;5256;48.728;9.140;2023-04-04T00:08:54;-0.70;99.90
10419;DHT22;5256;48.728;9.140;2023-04-04T00:11:20;-0.70;99.90
10419;DHT22;5256;48.728;9.140;2023-04-04T00:13:46;-0.70;99.90
10419;DHT22;5256;48.728;9.140;2023-04-04T00:16:12;-0.70;99.90
10419;DHT22;5256;48.728;9.140;2023-04-04T00:18:37;-0.70;99.90
10419;DHT22;5256;48.728;9.140;2023-04-04T00:21:03;-0.80;99.90
10419;DHT22;5256;48.728;9.140;2023-04-04T00:23:29;-0.70;99.90
10419;DHT22;5256;48.728;9.140;2023-04-04T00:25:54;-0.70;99.90
10419;DHT22;5256;48.728;9.140;2023-04-04T00:28:20;-0.70;99.90
10419;DHT22;5256;48.728;9.140;2023-04-04T00:30:47;-0.60;99.90
10419;DHT22;5256;48.728;9.140;2023-04-04T00:33:13;-0.60;99.90
10419;DHT22;5256;48.728;9.140;2023-04-04T00:35:38;-0.60;99.90
10419;DHT22;5256;48.728;9.140;2023-04-04T00:38:04;-0.60;99.90
10419;DHT22;5256;48.728;9.140;2023-04-04T00:40:30;-0.60;99.90
10419;DHT22;5256;48.728;9.140;2023-04-04T00:42:55;-0.60;99.90
10419;DHT22;5256;48.728;9.140;2023-04-04T00:45:22;-0.60;99.90
10419;DHT22;5256;48.728;9.140;2023-04-04T00:47:48;-0.60;99.90
10419;DHT22;5256;48.728;9.140;2023-04-04T00:50:14;-0.70;99.90
10419;DHT22;5256;48.728;9.140;2023-04-04T00:52:41;-0.70;99.90
10419;DHT22;5256;48.728;9.140;2023-04-04T00:55:06;-0.70;99.90
10419;DHT22;5256;48.728;9.140;2023-04-04T00:57:33;-0.70;99.90
10419;DHT22;5256;48.728;9.140;2023-04-04T00:59:59;-0.70;99.90
10419;DHT22;5256;48.728;9.140;2023-04-04T01:02:27;-0.70;99.90
10419;DHT22;5256;48.728;9.140;2023-04-04T01:04:52;-0.70;99.90
10419;DHT22;5256;48.728;9.140;2023-04-04T01:07:18;-0.70;99.90
10419;DHT22;5256;48.728;9.140;2023-04-04T01:09:44;-0.70;99.90
10419;DHT22;5256;48.728;9.140;2023-04-04T01:12:10;-0.70;99.90
10419;DHT22;5256;48.728;9.140;2023-04-04T01:14:36;-0.70;99.90
10419;DHT22;5256;48.728;9.140;2023-04-04T01:17:02;-0.80;99.90
10419;DHT22;5256;48.728;9.140;2023-04-04T01:19:37;-0.80;99.90
10419;DHT22;5256;48.728;9.140;2023-04-04T01:22:07;-0.80;99.90
10419;DHT22;5256;48.728;9.140;2023-04-04T01:24:35;-0.90;99.90
10419;DHT22;5256;48.728;9.140;2023-04-04T01:27:00;-1.00;99.90
10419;DHT22;5256;48.728;9.140;2023-04-04T01:29:26;-1.00;99.90
10419;DHT22;5256;48.728;9.140;2023-04-04T01:32:11;-1.00;99.90
10419;DHT22;5256;48.728;9.140;2023-04-04T01:34:43;-1.10;99.90
10419;DHT22;5256;48.728;9.140;2023-04-04T01:37:22;-1.20;99.90
10419;DHT22;5256;48.728;9.140;2023-04-04T01:42:42;-1.20;99.90
10419;DHT22;5256;48.728;9.140;2023-04-04T01:45:08;-1.20;99.90
10419;DHT22;5256;48.728;9.140;2023-04-04T01:47:41;-1.20;99.90
10419;DHT22;5256;48.728;9.140;2023-04-04T01:50:08;-1.20;99.90
10419;DHT22;5256;48.728;9.140;2023-04-04T01:52:34;-1.20;99.90
10419;DHT22;5256;48.728;9.140;2023-04-04T01:55:00;-1.20;99.90
10419;DHT22;5256;48.728;9.140;2023-04-04T01:57:25;-1.20;99.90
10419;DHT22;5256;48.728;9.140;2023-04-04T01:59:51;-1.30;99.90
10419;DHT22;5256;48.728;9.140;2023-04-04T02:02:17;-1.30;99.90
10419;DHT22;5256;48.728;9.140;2023-04-04T02:04:43;-1.40;99.90
10419;DHT22;5256;48.728;9.140;2023-04-04T02:07:08;-1.40;99.90
10419;DHT22;5256;48.728;9.140;2023-04-04T02:09:34;-1.50;99.90
10419;DHT22;5256;48.728;9.140;2023-04-04T02:12:00;-1.50;99.90
10419;DHT22;5256;48.728;9.140;2023-04-04T02:14:26;-1.50;99.90
10419;DHT22;5256;48.728;9.140;2023-04-04T02:16:51;-1.60;99.90
10419;DHT22;5256;48.728;9.140;2023-04-04T02:19:17;-1.60;99.90
10419;DHT22;5256;48.728;9.140;2023-04-04T02:21:43;-1.70;99.90
10419;DHT22;5256;48.728;9.140;2023-04-04T02:24:08;-1.80;99.90
10419;DHT22;5256;48.728;9.140;2023-04-04T02:26:34;-1.80;99.90
10419;DHT22;5256;48.728;9.140;2023-04-04T02:28:59;-1.90;99.90
10419;DHT22;5256;48.728;9.140;2023-04-04T02:31:26;-2.00;99.90
10419;DHT22;5256;48.728;9.140;2023-04-04T02:33:52;-2.00;99.90
10419;DHT22;5256;48.728;9.140;2023-04-04T02:36:17;-2.00;99.90
10419;DHT22;5256;48.728;9.140;2023-04-04T02:38:43;-2.10;99.90
10419;DHT22;5256;48.728;9.140;2023-04-04T02:41:08;-2.20;99.90
10419;DHT22;5256;48.728;9.140;2023-04-04T02:43:34;-2.20;99.90
10419;DHT22;5256;48.728;9.140;2023-04-04T02:45:59;-2.20;99.90
10419;DHT22;5256;48.728;9.140;2023-04-04T02:48:25;-2.20;99.90
10419;DHT22;5256;48.728;9.140;2023-04-04T02:50:51;-2.20;99.90
10419;DHT22;5256;48.728;9.140;2023-04-04T02:53:17;-2.20;99.90
10419;DHT22;5256;48.728;9.140;2023-04-04T02:55:42;-2.10;99.90
10419;DHT22;5256;48.728;9.140;2023-04-04T02:58:08;-2.20;99.90
10419;DHT22;5256;48.728;9.140;2023-04-04T03:00:34;-2.20;99.90
10419;DHT22;5256;48.728;9.140;2023-04-04T03:02:59;-2.10;99.90
10419;DHT22;5256;48.728;9.140;2023-04-04T03:05:26;-2.20;99.90
10419;DHT22;5256;48.728;9.140;2023-04-04T03:07:55;-2.20;99.90
10419;DHT22;5256;48.728;9.140;2023-04-04T03:10:22;-2.20;99.90
10419;DHT22;5256;48.728;9.140;2023-04-04T03:12:48;-2.30;99.90
10419;DHT22;5256;48.728;9.140;2023-04-04T03:15:14;-2.30;99.90
10419;DHT22;5256;48.728;9.140;2023-04-04T03:17:40;-2.30;99.90
10419;DHT22;5256;48.728;9.140;2023-04-04T03:20:06;-2.40;99.90
10419;DHT22;5256;48.728;9.140;2023-04-04T03:22:32;-2.40;99.90
10419;DHT22;5256;48.728;9.140;2023-04-04T03:24:57;-2.40;99.90
10419;DHT22;5256;48.728;9.140;2023-04-04T03:27:23;-2.40;99.90
10419;DHT22;5256;48.728;9.140;2023-04-04T03:29:48;-2.40;99.90
10419;DHT22;5256;48.728;9.140;2023-04-04T03:32:14;-2.40;99.90
10419;DHT22;5256;48.728;9.140;2023-04-04T03:34:39;-2.40;99.90
10419;DHT22;5256;48.728;9.140;2023-04-04T03:37:05;-2.40;99.90
10419;DHT22;5256;48.728;9.140;2023-04-04T03:39:31;-2.40;99.90
10419;DHT22;5256;48.728;9.140;2023-04-04T03:41:57;-2.40;99.90
10419;DHT22;5256;48.728;9.140;2023-04-04T03:44:23;-2.30;99.90
10419;DHT22;5256;48.728;9.140;2023-04-04T03:46:48;-2.30;99.90
10419;DHT22;5256;48.728;9.140;2023-04-04T03:49:14;-2.40;99.90
10419;DHT22;5256;48.728;9.140;2023-04-04T03:51:40;-2.40;99.90
10419;DHT22;5256;48.728;9.140;2023-04-04T03:54:06;-2.40;99.90
10419;DHT22;5256;48.728;9.140;2023-04-04T03:56:31;-2.40;99.90
10419;DHT22;5256;48.728;9.140;2023-04-04T03:58:57;-2.40;99.90
10419;DHT22;5256;48.728;9.140;2023-04-04T04:01:23;-2.30;99.90
10419;DHT22;5256;48.728;9.140;2023-04-04T04:03:48;-2.30;99.90
10419;DHT22;5256;48.728;9.140;2023-04-04T04:06:14;-2.30;99.90
10419;DHT22;5256;48.728;9.140;2023-04-04T04:08:39;-2.30;99.90
10419;DHT22;5256;48.728;9.140;2023-04-04T04:11:05;-2.30;99.90
10419;DHT22;5256;48.728;9.140;2023-04-04T04:13:33;-2.30;99.90
10419;DHT22;5256;48.728;9.140;2023-04-04T04:16:00;-2.40;99.90
10419;DHT22;5256;48.728;9.140;2023-04-04T04:18:26;-2.40;99.90
10419;DHT22;5256;48.728;9.140;2023-04-04T04:20:56;-2.50;99.90
10419;DHT22;5256;48.728;9.140;2023-04-04T04:23:22;-2.40;99.90
10419;DHT22;5256;48.728;9.140;2023-04-04T04:25:48;-2.50;99.90
10419;DHT22;5256;48.728;9.140;2023-04-04T04:28:13;-2.50;99.90
10419;DHT22;5256;48.728;9.140;2023-04-04T04:30:39;-2.50;99.90
10419;DHT22;5256;48.728;9.140;2023-04-04T04:33:04;-2.50;99.90
10419;DHT22;5256;48.728;9.140;2023-04-04T04:35:30;-2.50;99.90
10419;DHT22;5256;48.728;9.140;2023-04-04T04:37:56;-2.50;99.90
10419;DHT22;5256;48.728;9.140;2023-04-04T04:40:21;-2.50;99.90
10419;DHT22;5256;48.728;9.140;2023-04-04T04:42:47;-2.50;99.90
10419;DHT22;5256;48.728;9.140;2023-04-04T04:45:12;-2.50;99.90
10419;DHT22;5256;48.728;9.140;2023-04-04T04:47:38;-2.60;99.90
10419;DHT22;5256;48.728;9.140;2023-04-04T04:50:04;-2.50;99.90
10419;DHT22;5256;48.728;9.140;2023-04-04T04:52:29;-2.40;99.90
10419;DHT22;5256;48.728;9.140;2023-04-04T04:54:56;-2.40;99.90
10419;DHT22;5256;48.728;9.140;2023-04-04T04:57:22;-2.40;99.90
10419;DHT22;5256;48.728;9.140;2023-04-04T04:59:48;-2.40;99.90
10419;DHT22;5256;48.728;9.140;2023-04-04T05:02:14;-2.30;99.90
10419;DHT22;5256;48.728;9.140;2023-04-04T05:04:40;-2.30;99.90
10419;DHT22;5256;48.728;9.140;2023-04-04T05:07:09;-2.40;99.90
10419;DHT22;5256;48.728;9.140;2023-04-04T05:09:36;-2.30;99.90
10419;DHT22;5256;48.728;9.140;2023-04-04T05:12:02;-2.30;99.90
10419;DHT22;5256;48.728;9.140;2023-04-04T05:14:28;-2.30;99.90
10419;DHT22;5256;48.728;9.140;2023-04-04T05:16:54;-2.30;99.90
10419;DHT22;5256;48.728;9.140;2023-04-04T05:19:19;-2.20;99.90
10419;DHT22;5256;48.728;9.140;2023-04-04T05:21:45;-2.20;99.90
10419;DHT22;5256;48.728;9.140;2023-04-04T05:24:11;-2.20;99.90
10419;DHT22;5256;48.728;9.140;2023-04-04T05:26:37;-2.20;99.90
10419;DHT22;5256;48.728;9.140;2023-04-04T05:29:03;-2.10;99.90
10419;DHT22;5256;48.728;9.140;2023-04-04T05:31:28;-2.10;99.90
10419;DHT22;5256;48.728;9.140;2023-04-04T05:33:54;-2.10;99.90
10419;DHT22;5256;48.728;9.140;2023-04-04T05:36:20;-2.00;99.90
10419;DHT22;5256;48.728;9.140;2023-04-04T05:38:46;-2.00;99.90
10419;DHT22;5256;48.728;9.140;2023-04-04T05:41:12;-1.90;99.90
10419;DHT22;5256;48.728;9.140;2023-04-04T05:43:40;-1.80;99.90
10419;DHT22;5256;48.728;9.140;2023-04-04T05:46:05;-1.70;99.90
10419;DHT22;5256;48.728;9.140;2023-04-04T05:48:31;-1.80;99.90
10419;DHT22;5256;48.728;9.140;2023-04-04T05:50:56;-1.70;99.90
10419;DHT22;5256;48.728;9.140;2023-04-04T05:53:22;-1.50;99.90
10419;DHT22;5256;48.728;9.140;2023-04-04T05:55:53;-1.50;99.90
10419;DHT22;5256;48.728;9.140;2023-04-04T05:58:19;-1.40;99.90
10419;DHT22;5256;48.728;9.140;2023-04-04T06:00:45;-1.30;99.90
10419;DHT22;5256;48.728;9.140;2023-04-04T06:03:11;-1.30;99.90
10419;DHT22;5256;48.728;9.140;2023-04-04T06:05:36;-1.20;99.90
10419;DHT22;5256;48.728;9.140;2023-04-04T06:08:02;-1.10;99.90
10419;DHT22;5256;48.728;9.140;2023-04-04T06:10:27;-1.10;99.90
10419;DHT22;5256;48.728;9.140;2023-04-04T06:12:53;-1.00;99.90
10419;DHT22;5256;48.728;9.140;2023-04-04T06:15:18;-0.90;99.90
10419;DHT22;5256;48.728;9.140;2023-04-04T06:17:44;-0.90;99.90
10419;DHT22;5256;48.728;9.140;2023-04-04T06:20:10;-0.80;99.90
10419;DHT22;5256;48.728;9.140;2023-04-04T06:22:36;-0.70;99.90
10419;DHT22;5256;48.728;9.140;2023-04-04T06:25:01;-0.60;99.90
10419;DHT22;5256;48.728;9.140;2023-04-04T06:27:27;-0.50;99.90
10419;DHT22;5256;48.728;9.140;2023-04-04T06:29:53;-0.30;99.90
10419;DHT22;5256;48.728;9.140;2023-04-04T06:32:19;-0.30;99.90
10419;DHT22;5256;48.728;9.140;2023-04-04T06:34:46;-0.20;99.90
10419;DHT22;5256;48.728;9.140;2023-04-04T06:37:12;-0.20;99.90
10419;DHT22;5256;48.728;9.140;2023-04-04T06:39:37;0.00;99.90
10419;DHT22;5256;48.728;9.140;2023-04-04T06:42:03;0.10;99.90
10419;DHT22;5256;48.728;9.140;2023-04-04T06:44:28;0.30;99.90
10419;DHT22;5256;48.728;9.140;2023-04-04T06:46:54;0.30;99.90
10419;DHT22;5256;48.728;9.140;2023-04-04T06:49:20;0.30;99.90
10419;DHT22;5256;48.728;9.140;2023-04-04T06:51:46;0.30;99.90
10419;DHT22;5256;48.728;9.140;2023-04-04T06:54:15;0.40;99.90
10419;DHT22;5256;48.728;9.140;2023-04-04T06:56:40;0.50;99.90
10419;DHT22;5256;48.728;9.140;2023-04-04T06:59:06;0.60;99.90
10419;DHT22;5256;48.728;9.140;2023-04-04T07:01:35;0.50;99.90
10419;DHT22;5256;48.728;9.140;2023-04-04T07:04:01;1.00;99.90
10419;DHT22;5256;48.728;9.140;2023-04-04T07:06:26;1.50;99.90
10419;DHT22;5256;48.728;9.140;2023-04-04T07:08:54;2.10;99.90
10419;DHT22;5256;48.728;9.140;2023-04-04T07:11:20;2.10;99.90
10419;DHT22;5256;48.728;9.140;2023-04-04T07:13:48;2.60;99.20
10419;DHT22;5256;48.728;9.140;2023-04-04T07:16:14;2.80;98.80
10419;DHT22;5256;48.728;9.140;2023-04-04T07:18:39;2.90;98.40
10419;DHT22;5256;48.728;9.140;2023-04-04T07:21:05;3.30;98.20
10419;DHT22;5256;48.728;9.140;2023-04-04T07:23:31;3.40;98.00
10419;DHT22;5256;48.728;9.140;2023-04-04T07:25:56;3.10;97.90
10419;DHT22;5256;48.728;9.140;2023-04-04T07:28:22;3.40;97.80
10419;DHT22;5256;48.728;9.140;2023-04-04T07:30:47;3.70;97.30
10419;DHT22;5256;48.728;9.140;2023-04-04T07:33:13;4.10;97.70
10419;DHT22;5256;48.728;9.140;2023-04-04T07:35:39;4.30;96.60
10419;DHT22;5256;48.728;9.140;2023-04-04T07:38:04;4.30;96.40
10419;DHT22;5256;48.728;9.140;2023-04-04T07:40:30;4.10;96.50
10419;DHT22;5256;48.728;9.140;2023-04-04T07:42:56;4.50;96.30
10419;DHT22;5256;48.728;9.140;2023-04-04T07:45:22;4.70;95.80
10419;DHT22;5256;48.728;9.140;2023-04-04T07:47:48;5.00;95.10
10419;DHT22;5256;48.728;9.140;2023-04-04T07:50:14;5.00;94.90
10419;DHT22;5256;48.728;9.140;2023-04-04T07:52:40;5.10;95.20
10419;DHT22;5256;48.728;9.140;2023-04-04T07:55:06;5.20;94.90
10419;DHT22;5256;48.728;9.140;2023-04-04T07:57:38;4.30;95.40
10419;DHT22;5256;48.728;9.140;2023-04-04T08:00:07;4.30;95.00
10419;DHT22;5256;48.728;9.140;2023-04-04T08:02:36;4.50;95.60
10419;DHT22;5256;48.728;9.140;2023-04-04T08:05:02;4.70;95.00
10419;DHT22;5256;48.728;9.140;2023-04-04T08:07:28;5.20;94.80
10419;DHT22;5256;48.728;9.140;2023-04-04T08:09:53;5.80;94.60
10419;DHT22;5256;48.728;9.140;2023-04-04T08:12:19;6.10;94.00
10419;DHT22;5256;48.728;9.140;2023-04-04T08:14:44;6.30;93.90
10419;DHT22;5256;48.728;9.140;2023-04-04T08:17:10;6.30;93.50
10419;DHT22;5256;48.728;9.140;2023-04-04T08:19:37;6.00;93.50
10419;DHT22;5256;48.728;9.140;2023-04-04T08:22:02;6.30;94.50
10419;DHT22;5256;48.728;9.140;2023-04-04T08:24:28;6.30;93.10
10419;DHT22;5256;48.728;9.140;2023-04-04T08:26:53;6.40;93.80
10419;DHT22;5256;48.728;9.140;2023-04-04T08:29:19;6.80;93.50
10419;DHT22;5256;48.728;9.140;2023-04-04T08:31:45;7.20;93.00
10419;DHT22;5256;48.728;9.140;2023-04-04T08:34:10;7.20;92.40
10419;DHT22;5256;48.728;9.140;2023-04-04T08:36:36;7.40;92.00
10419;DHT22;5256;48.728;9.140;2023-04-04T08:39:02;7.10;91.60
10419;DHT22;5256;48.728;9.140;2023-04-04T08:41:28;7.10;91.60
10419;DHT22;5256;48.728;9.140;2023-04-04T08:43:55;7.20;92.00
10419;DHT22;5256;48.728;9.140;2023-04-04T08:46:22;7.60;91.60
10419;DHT22;5256;48.728;9.140;2023-04-04T08:48:49;7.20;90.80
10419;DHT22;5256;48.728;9.140;2023-04-04T08:51:19;7.00;91.60
10419;DHT22;5256;48.728;9.140;2023-04-04T08:53:45;7.30;91.80
10419;DHT22;5256;48.728;9.140;2023-04-04T08:56:11;7.10;90.50
10419;DHT22;5256;48.728;9.140;2023-04-04T08:58:37;7.20;90.90
10419;DHT22;5256;48.728;9.140;2023-04-04T09:01:04;7.10;90.10
10419;DHT22;5256;48.728;9.140;2023-04-04T09:03:32;7.20;90.00
10419;DHT22;5256;48.728;9.140;2023-04-04T09:05:58;7.40;91.00
10419;DHT22;5256;48.728;9.140;2023-04-04T09:08:25;7.20;90.60
10419;DHT22;5256;48.728;9.140;2023-04-04T09:10:51;6.80;91.20
10419;DHT22;5256;48.728;9.140;2023-04-04T09:13:17;7.20;90.50
10419;DHT22;5256;48.728;9.140;2023-04-04T09:15:51;7.80;90.60
10419;DHT22;5256;48.728;9.140;2023-04-04T09:18:17;8.30;89.60
10419;DHT22;5256;48.728;9.140;2023-04-04T09:20:47;8.70;88.20
10419;DHT22;5256;48.728;9.140;2023-04-04T09:23:15;7.90;87.60
10419;DHT22;5256;48.728;9.140;2023-04-04T09:25:48;7.70;90.10
10419;DHT22;5256;48.728;9.140;2023-04-04T09:28:15;7.40;90.50
10419;DHT22;5256;48.728;9.140;2023-04-04T09:30:41;8.10;90.20
10419;DHT22;5256;48.728;9.140;2023-04-04T09:33:09;8.30;87.30
10419;DHT22;5256;48.728;9.140;2023-04-04T09:35:37;7.70;87.10
10419;DHT22;5256;48.728;9.140;2023-04-04T09:38:04;7.20;88.80
10419;DHT22;5256;48.728;9.140;2023-04-04T09:40:30;7.20;90.00
10419;DHT22;5256;48.728;9.140;2023-04-04T09:42:59;6.70;87.90
10419;DHT22;5256;48.728;9.140;2023-04-04T09:45:26;6.90;90.10
10419;DHT22;5256;48.728;9.140;2023-04-04T09:47:52;6.90;90.00
10419;DHT22;5256;48.728;9.140;2023-04-04T09:50:23;6.60;89.40
10419;DHT22;5256;48.728;9.140;2023-04-04T09:52:49;5.90;90.10
10419;DHT22;5256;48.728;9.140;2023-04-04T09:55:16;5.90;90.70
10419;DHT22;5256;48.728;9.140;2023-04-04T09:57:42;6.10;91.10
10419;DHT22;5256;48.728;9.140;2023-04-04T10:00:10;6.00;89.70
10419;DHT22;5256;48.728;9.140;2023-04-04T10:02:38;6.00;90.60
10419;DHT22;5256;48.728;9.140;2023-04-04T10:05:08;6.30;91.30
10419;DHT22;5256;48.728;9.140;2023-04-04T10:07:37;5.60;90.10
10419;DHT22;5256;48.728;9.140;2023-04-04T10:10:07;5.60;91.20
10419;DHT22;5256;48.728;9.140;2023-04-04T10:12:36;5.70;91.10
10419;DHT22;5256;48.728;9.140;2023-04-04T10:15:03;6.00;91.70
10419;DHT22;5256;48.728;9.140;2023-04-04T10:17:30;5.70;91.00
10419;DHT22;5256;48.728;9.140;2023-04-04T10:19:59;6.00;91.20
10419;DHT22;5256;48.728;9.140;2023-04-04T10:22:28;6.10;91.00
10419;DHT22;5256;48.728;9.140;2023-04-04T10:24:54;6.40;90.60
10419;DHT22;5256;48.728;9.140;2023-04-04T10:27:20;6.10;90.40
10419;DHT22;5256;48.728;9.140;2023-04-04T10:29:46;6.00;91.20
10419;DHT22;5256;48.728;9.140;2023-04-04T10:32:17;5.50;91.20
10419;DHT22;5256;48.728;9.140;2023-04-04T10:34:54;5.60;91.20
10419;DHT22;5256;48.728;9.140;2023-04-04T10:37:25;5.60;91.50
10419;DHT22;5256;48.728;9.140;2023-04-04T10:42:31;5.30;90.70
10419;DHT22;5256;48.728;9.140;2023-04-04T10:45:04;5.10;91.30
10419;DHT22;5256;48.728;9.140;2023-04-04T10:47:32;5.20;91.90
10419;DHT22;5256;48.728;9.140;2023-04-04T10:49:58;5.30;91.20
10419;DHT22;5256;48.728;9.140;2023-04-04T10:52:26;5.40;91.90
10419;DHT22;5256;48.728;9.140;2023-04-04T10:54:57;5.30;91.10
10419;DHT22;5256;48.728;9.140;2023-04-04T10:57:24;5.10;90.50
10419;DHT22;5256;48.728;9.140;2023-04-04T11:02:57;5.20;91.20
10419;DHT22;5256;48.728;9.140;2023-04-04T11:05:34;5.20;92.00
10419;DHT22;5256;48.728;9.140;2023-04-04T11:08:14;5.10;91.30
10419;DHT22;5256;48.728;9.140;2023-04-04T11:10:43;4.90;90.90
10419;DHT22;5256;48.728;9.140;2023-04-04T11:15:55;5.20;91.50
10419;DHT22;5256;48.728;9.140;2023-04-04T11:21:20;5.20;91.10
10419;DHT22;5256;48.728;9.140;2023-04-04T11:26:17;5.30;91.40
10419;DHT22;5256;48.728;9.140;2023-04-04T11:29:04;5.30;91.20
10419;DHT22;5256;48.728;9.140;2023-04-04T11:31:41;5.00;90.80
10419;DHT22;5256;48.728;9.140;2023-04-04T11:34:12;5.10;91.00
10419;DHT22;5256;48.728;9.140;2023-04-04T11:39:24;5.10;91.40
10419;DHT22;5256;48.728;9.140;2023-04-04T11:42:32;5.20;91.00
10419;DHT22;5256;48.728;9.140;2023-04-04T11:45:03;5.50;91.10
10419;DHT22;5256;48.728;9.140;2023-04-04T11:47:29;5.50;90.40
10419;DHT22;5256;48.728;9.140;2023-04-04T11:49:57;5.50;90.90
10419;DHT22;5256;48.728;9.140;2023-04-04T11:52:23;5.70;91.30
10419;DHT22;5256;48.728;9.140;2023-04-04T11:54:49;5.70;90.50
10419;DHT22;5256;48.728;9.140;2023-04-04T11:57:18;5.60;91.00
10419;DHT22;5256;48.728;9.140;2023-04-04T11:59:46;5.60;90.00
10419;DHT22;5256;48.728;9.140;2023-04-04T12:02:15;5.50;90.40
10419;DHT22;5256;48.728;9.140;2023-04-04T12:04:45;5.70;90.90
10419;DHT22;5256;48.728;9.140;2023-04-04T12:07:12;5.70;89.70
10419;DHT22;5256;48.728;9.140;2023-04-04T12:09:41;5.60;90.30
10419;DHT22;5256;48.728;9.140;2023-04-04T12:12:10;5.50;89.20
10419;DHT22;5256;48.728;9.140;2023-04-04T12:14:36;5.60;89.50
10419;DHT22;5256;48.728;9.140;2023-04-04T12:17:04;5.60;90.40
10419;DHT22;5256;48.728;9.140;2023-04-04T12:19:30;5.70;90.80
10419;DHT22;5256;48.728;9.140;2023-04-04T12:21:56;5.70;90.00
10419;DHT22;5256;48.728;9.140;2023-04-04T12:24:22;5.40;89.80
10419;DHT22;5256;48.728;9.140;2023-04-04T12:26:50;5.60;90.00
10419;DHT22;5256;48.728;9.140;2023-04-04T12:29:17;5.80;89.00
10419;DHT22;5256;48.728;9.140;2023-04-04T12:31:44;5.80;89.00
10419;DHT22;5256;48.728;9.140;2023-04-04T12:34:18;5.50;87.20
10419;DHT22;5256;48.728;9.140;2023-04-04T12:36:50;5.50;88.40
10419;DHT22;5256;48.728;9.140;2023-04-04T12:39:18;5.50;87.80
10419;DHT22;5256;48.728;9.140;2023-04-04T12:42:01;5.50;87.80
10419;DHT22;5256;48.728;9.140;2023-04-04T12:44:36;5.60;88.20
10419;DHT22;5256;48.728;9.140;2023-04-04T12:47:07;5.90;89.60
10419;DHT22;5256;48.728;9.140;2023-04-04T12:49:42;6.10;88.60
10419;DHT22;5256;48.728;9.140;2023-04-04T12:52:18;6.10;88.80
10419;DHT22;5256;48.728;9.140;2023-04-04T12:54:45;6.00;87.60
10419;DHT22;5256;48.728;9.140;2023-04-04T12:57:15;5.90;88.40
10419;DHT22;5256;48.728;9.140;2023-04-04T12:59:45;5.90;89.80
10419;DHT22;5256;48.728;9.140;2023-04-04T13:02:16;6.10;89.50
10419;DHT22;5256;48.728;9.140;2023-04-04T13:04:53;6.10;89.20
10419;DHT22;5256;48.728;9.140;2023-04-04T13:07:33;5.90;89.80
10419;DHT22;5256;48.728;9.140;2023-04-04T13:10:04;6.00;88.80
10419;DHT22;5256;48.728;9.140;2023-04-04T13:12:58;5.90;88.00
10419;DHT22;5256;48.728;9.140;2023-04-04T13:15:47;6.00;89.00
10419;DHT22;5256;48.728;9.140;2023-04-04T13:18:14;6.10;89.00
10419;DHT22;5256;48.728;9.140;2023-04-04T13:20:40;6.00;88.50
10419;DHT22;5256;48.728;9.140;2023-04-04T13:23:06;6.10;89.50
10419;DHT22;5256;48.728;9.140;2023-04-04T13:25:31;6.30;90.10
10419;DHT22;5256;48.728;9.140;2023-04-04T13:27:57;6.40;90.20
10419;DHT22;5256;48.728;9.140;2023-04-04T13:30:23;6.60;90.90
10419;DHT22;5256;48.728;9.140;2023-04-04T13:32:48;6.70;90.50
10419;DHT22;5256;48.728;9.140;2023-04-04T13:35:14;6.60;90.40
10419;DHT22;5256;48.728;9.140;2023-04-04T13:37:40;6.50;89.80
10419;DHT22;5256;48.728;9.140;2023-04-04T13:40:06;6.50;90.70
10419;DHT22;5256;48.728;9.140;2023-04-04T13:42:32;6.30;89.80
10419;DHT22;5256;48.728;9.140;2023-04-04T13:44:58;6.20;90.50
10419;DHT22;5256;48.728;9.140;2023-04-04T13:47:24;6.20;90.40
10419;DHT22;5256;48.728;9.140;2023-04-04T13:49:52;6.40;90.20
10419;DHT22;5256;48.728;9.140;2023-04-04T13:52:18;6.40;90.00
10419;DHT22;5256;48.728;9.140;2023-04-04T13:54:43;6.50;89.30
10419;DHT22;5256;48.728;9.140;2023-04-04T13:57:09;6.60;89.10
10419;DHT22;5256;48.728;9.140;2023-04-04T13:59:34;6.40;90.00
10419;DHT22;5256;48.728;9.140;2023-04-04T14:02:00;6.60;90.10
10419;DHT22;5256;48.728;9.140;2023-04-04T14:04:25;6.50;90.00
10419;DHT22;5256;48.728;9.140;2023-04-04T14:06:51;6.50;90.30
10419;DHT22;5256;48.728;9.140;2023-04-04T14:09:17;6.70;90.60
10419;DHT22;5256;48.728;9.140;2023-04-04T14:11:44;6.60;89.30
10419;DHT22;5256;48.728;9.140;2023-04-04T14:14:10;6.70;89.40
10419;DHT22;5256;48.728;9.140;2023-04-04T14:16:36;6.60;89.60
10419;DHT22;5256;48.728;9.140;2023-04-04T14:19:01;6.60;88.00
10419;DHT22;5256;48.728;9.140;2023-04-04T14:21:27;6.70;90.00
10419;DHT22;5256;48.728;9.140;2023-04-04T14:23:53;6.90;90.00
10419;DHT22;5256;48.728;9.140;2023-04-04T14:26:18;7.10;88.50
10419;DHT22;5256;48.728;9.140;2023-04-04T14:28:44;7.00;87.50
10419;DHT22;5256;48.728;9.140;2023-04-04T14:31:09;7.00;88.40
10419;DHT22;5256;48.728;9.140;2023-04-04T14:33:35;7.00;87.30
10419;DHT22;5256;48.728;9.140;2023-04-04T14:36:01;6.80;87.10
10419;DHT22;5256;48.728;9.140;2023-04-04T14:38:26;7.10;87.40
10419;DHT22;5256;48.728;9.140;2023-04-04T14:40:52;7.40;88.00
10419;DHT22;5256;48.728;9.140;2023-04-04T14:43:17;7.90;89.50
10419;DHT22;5256;48.728;9.140;2023-04-04T14:45:43;8.50;88.50
10419;DHT22;5256;48.728;9.140;2023-04-04T14:48:08;8.60;87.20
10419;DHT22;5256;48.728;9.140;2023-04-04T14:50:34;8.90;86.90
10419;DHT22;5256;48.728;9.140;2023-04-04T14:53:02;8.70;85.70
10419;DHT22;5256;48.728;9.140;2023-04-04T14:55:28;8.50;84.60
10419;DHT22;5256;48.728;9.140;2023-04-04T14:57:53;8.60;86.20
10419;DHT22;5256;48.728;9.140;2023-04-04T15:00:19;8.30;84.80
10419;DHT22;5256;48.728;9.140;2023-04-04T15:02:46;8.10;84.70
10419;DHT22;5256;48.728;9.140;2023-04-04T15:05:13;8.70;86.70
10419;DHT22;5256;48.728;9.140;2023-04-04T15:07:39;9.60;87.50
10419;DHT22;5256;48.728;9.140;2023-04-04T15:10:06;10.10;81.90
10419;DHT22;5256;48.728;9.140;2023-04-04T15:12:31;10.20;81.30
10419;DHT22;5256;48.728;9.140;2023-04-04T15:14:57;10.10;80.70
10419;DHT22;5256;48.728;9.140;2023-04-04T15:17:22;10.10;80.80
10419;DHT22;5256;48.728;9.140;2023-04-04T15:19:48;10.10;80.70
10419;DHT22;5256;48.728;9.140;2023-04-04T15:22:13;10.50;80.30
10419;DHT22;5256;48.728;9.140;2023-04-04T15:24:39;10.60;80.60
10419;DHT22;5256;48.728;9.140;2023-04-04T15:27:05;11.10;78.50
10419;DHT22;5256;48.728;9.140;2023-04-04T15:29:30;10.50;78.00
10419;DHT22;5256;48.728;9.140;2023-04-04T15:31:56;10.50;78.50
10419;DHT22;5256;48.728;9.140;2023-04-04T15:34:22;10.40;78.20
10419;DHT22;5256;48.728;9.140;2023-04-04T15:36:47;10.20;79.40
10419;DHT22;5256;48.728;9.140;2023-04-04T15:39:15;9.50;80.30
10419;DHT22;5256;48.728;9.140;2023-04-04T15:41:40;9.60;81.20
10419;DHT22;5256;48.728;9.140;2023-04-04T15:44:06;9.40;80.00
10419;DHT22;5256;48.728;9.140;2023-04-04T15:46:31;9.60;81.00
10419;DHT22;5256;48.728;9.140;2023-04-04T15:48:57;10.00;80.30
10419;DHT22;5256;48.728;9.140;2023-04-04T15:51:22;10.30;79.60
10419;DHT22;5256;48.728;9.140;2023-04-04T15:53:52;9.70;80.40
10419;DHT22;5256;48.728;9.140;2023-04-04T15:56:18;9.70;80.80
10419;DHT22;5256;48.728;9.140;2023-04-04T15:58:44;9.50;79.70
10419;DHT22;5256;48.728;9.140;2023-04-04T16:01:09;8.90;80.60
10419;DHT22;5256;48.728;9.140;2023-04-04T16:03:36;8.20;80.80
10419;DHT22;5256;48.728;9.140;2023-04-04T16:06:02;7.50;81.70
10419;DHT22;5256;48.728;9.140;2023-04-04T16:08:28;7.30;82.40
10419;DHT22;5256;48.728;9.140;2023-04-04T16:10:56;7.00;83.50
10419;DHT22;5256;48.728;9.140;2023-04-04T16:13:22;6.80;84.70